Time;durP1;ratioP1;P1;durP2;ratioP2;P2;SDS_P1;SDS_P2;PMS_P1;PMS_P2;Temp;Humidity;BMP_temperature;BMP_pressure;BME280_temperature;BME280_humidity;BME280_pressure;Samples;Min_cycle;Max_cycle;Signal;HPM_P1;HPM_P2
2023/04/08 00:01:20;;;;;;;14.25;7.90;;;7.60;99.90;;;;;;5067268;28;20357;-63
2023/04/08 00:03:45;;;;;;;17.60;7.80;;;7.60;99.90;;;;;;5054046;28;20044;-63
2023/04/08 00:06:11;;;;;;;14.48;7.70;;;7.60;99.90;;;;;;5039743;28;20025;-64
2023/04/08 00:08:36;;;;;;;15.23;8.05;;;7.70;99.90;;;;;;5047762;28;20029;-70
2023/04/08 00:11:02;;;;;;;17.45;8.32;;;7.60;99.90;;;;;;5056175;28;20028;-65
2023/04/08 00:13:28;;;;;;;16.42;7.78;;;7.60;99.90;;;;;;5037379;28;20783;-64
2023/04/08 00:15:53;;;;;;;13.57;7.80;;;7.50;99.90;;;;;;5040687;28;20044;-65
2023/04/08 00:18:19;;;;;;;14.95;8.27;;;7.50;99.90;;;;;;5046881;28;20041;-65
2023/04/08 00:20:45;;;;;;;12.85;7.70;;;7.50;99.90;;;;;;5046950;28;20047;-64
2023/04/08 00:23:10;;;;;;;13.55;8.23;;;7.50;99.90;;;;;;5059796;28;20035;-64
2023/04/08 00:25:36;;;;;;;16.92;8.50;;;7.60;99.90;;;;;;5047246;28;20055;-70
2023/04/08 00:28:02;;;;;;;14.93;7.97;;;7.60;99.90;;;;;;5063903;28;20098;-65
2023/04/08 00:30:28;;;;;;;14.45;8.20;;;7.60;99.90;;;;;;5064091;28;20033;-64
2023/04/08 00:32:54;;;;;;;17.90;8.50;;;7.70;99.90;;;;;;5065881;28;20025;-67
2023/04/08 00:35:19;;;;;;;13.75;7.45;;;7.70;99.90;;;;;;5057313;28;20095;-65
2023/04/08 00:37:45;;;;;;;13.98;7.43;;;7.70;99.90;;;;;;5065093;28;20392;-65
2023/04/08 00:40:11;;;;;;;12.32;7.38;;;7.70;99.90;;;;;;5064169;28;20032;-65
2023/04/08 00:42:37;;;;;;;12.90;7.65;;;7.70;99.90;;;;;;5067550;28;20032;-70
2023/04/08 00:45:03;;;;;;;12.13;7.68;;;7.70;99.90;;;;;;5066423;28;20734;-64
2023/04/08 00:47:29;;;;;;;14.43;7.63;;;7.70;99.90;;;;;;5060166;28;20114;-66
2023/04/08 00:49:55;;;;;;;13.93;7.25;;;7.70;99.90;;;;;;5062424;28;20033;-66
2023/04/08 00:52:20;;;;;;;13.75;7.50;;;7.70;99.90;;;;;;5047512;28;20033;-64
2023/04/08 00:54:46;;;;;;;14.55;8.05;;;7.60;99.90;;;;;;5045838;28;20144;-64
2023/04/08 00:57:12;;;;;;;14.70;8.50;;;7.50;99.90;;;;;;5060329;28;20028;-65
2023/04/08 00:59:37;;;;;;;15.95;7.82;;;7.50;99.90;;;;;;5068052;28;20032;-70
2023/04/08 01:02:34;;;;;;;13.40;7.70;;;7.50;99.90;;;;;;5034210;28;20167;-67
2023/04/08 01:05:15;;;;;;;15.80;7.55;;;7.50;99.90;;;;;;5032159;28;20273;-64
2023/04/08 01:07:47;;;;;;;14.13;8.13;;;7.50;99.90;;;;;;5049937;28;20116;-70
2023/04/08 01:10:24;;;;;;;17.50;8.13;;;7.50;99.90;;;;;;5054630;28;20029;-64
2023/04/08 01:12:58;;;;;;;13.30;7.55;;;7.40;99.90;;;;;;5065793;28;20499;-65
2023/04/08 01:15:26;;;;;;;12.45;8.00;;;7.40;99.90;;;;;;5042869;28;20073;-67
2023/04/08 01:17:55;;;;;;;12.50;7.55;;;7.40;99.90;;;;;;5068952;28;20025;-64
2023/04/08 01:20:23;;;;;;;18.05;7.75;;;7.30;99.90;;;;;;5057062;28;20024;-65
2023/04/08 01:23:12;;;;;;;14.63;8.05;;;7.30;99.90;;;;;;5050143;28;20029;-66
2023/04/08 01:25:38;;;;;;;14.20;7.40;;;7.30;99.90;;;;;;5038756;28;20030;-71
2023/04/08 01:28:12;;;;;;;14.65;7.50;;;7.30;99.90;;;;;;5048486;28;20033;-66
2023/04/08 01:30:41;;;;;;;17.13;8.80;;;7.40;99.90;;;;;;5062981;28;20762;-70
2023/04/08 01:33:09;;;;;;;15.57;8.00;;;7.40;99.90;;;;;;5067457;28;20465;-64
2023/04/08 01:35:35;;;;;;;14.48;8.07;;;7.40;99.90;;;;;;5070620;28;20033;-64
2023/04/08 01:38:02;;;;;;;14.80;7.55;;;7.50;99.90;;;;;;5068790;28;20107;-65
2023/04/08 01:40:28;;;;;;;16.85;8.10;;;7.50;99.90;;;;;;5058366;28;20041;-64
2023/04/08 01:42:56;;;;;;;16.00;8.23;;;7.50;99.90;;;;;;5049300;28;20074;-68
2023/04/08 01:45:23;;;;;;;17.45;7.93;;;7.50;99.90;;;;;;5066242;28;20120;-65
2023/04/08 01:47:49;;;;;;;13.43;7.43;;;7.60;99.90;;;;;;5069582;28;20813;-65
2023/04/08 01:50:16;;;;;;;11.90;6.97;;;7.60;99.90;;;;;;5058910;28;20397;-65
2023/04/08 01:52:47;;;;;;;16.77;7.78;;;7.60;99.90;;;;;;5070034;28;20047;-66
2023/04/08 01:55:13;;;;;;;12.23;7.47;;;7.60;99.90;;;;;;5049835;28;20071;-64
2023/04/08 01:57:40;;;;;;;16.25;7.72;;;7.50;99.90;;;;;;5050294;28;20056;-66
2023/04/08 02:00:11;;;;;;;12.98;7.68;;;7.50;99.90;;;;;;5064757;28;20028;-64
2023/04/08 02:02:40;;;;;;;14.77;7.80;;;7.50;99.90;;;;;;5068423;28;20055;-64
2023/04/08 02:05:06;;;;;;;14.10;7.70;;;7.50;99.90;;;;;;5048141;28;20036;-64
2023/04/08 02:07:31;;;;;;;12.57;7.45;;;7.50;99.90;;;;;;5038301;28;20041;-68
2023/04/08 02:09:57;;;;;;;13.13;7.57;;;7.50;99.90;;;;;;5047892;28;20111;-63
2023/04/08 02:12:24;;;;;;;14.65;7.53;;;7.50;99.90;;;;;;5050208;28;20036;-63
2023/04/08 02:14:50;;;;;;;12.65;7.05;;;7.40;99.90;;;;;;5067942;28;20071;-64
2023/04/08 02:17:31;;;;;;;14.32;7.25;;;7.40;99.90;;;;;;5055831;28;20109;-63
2023/04/08 02:20:06;;;;;;;18.27;7.38;;;7.30;99.90;;;;;;5047761;28;20032;-64
2023/04/08 02:22:43;;;;;;;15.43;7.28;;;7.30;99.90;;;;;;5053758;28;20021;-64
2023/04/08 02:25:13;;;;;;;15.90;7.63;;;7.20;99.90;;;;;;5049279;28;20029;-64
2023/04/08 02:27:40;;;;;;;14.03;7.23;;;7.20;99.90;;;;;;5062185;28;20120;-66
2023/04/08 02:30:07;;;;;;;13.35;7.75;;;7.20;99.90;;;;;;5067771;28;21297;-64
2023/04/08 02:32:34;;;;;;;14.10;7.90;;;7.20;99.90;;;;;;5060994;28;20051;-64
2023/04/08 02:35:00;;;;;;;14.00;8.05;;;7.20;99.90;;;;;;5068759;28;20338;-63
2023/04/08 02:37:32;;;;;;;17.17;9.02;;;7.20;99.90;;;;;;5048197;28;20032;-63
2023/04/08 02:39:58;;;;;;;18.35;9.00;;;7.20;99.90;;;;;;5048791;28;20151;-63
2023/04/08 02:42:23;;;;;;;18.95;9.10;;;7.20;99.90;;;;;;5046389;28;20530;-65
2023/04/08 02:44:50;;;;;;;18.55;9.50;;;7.20;99.90;;;;;;5048141;28;20033;-64
2023/04/08 02:47:16;;;;;;;16.70;9.05;;;7.20;99.90;;;;;;5058121;28;20074;-65
2023/04/08 02:49:41;;;;;;;17.73;9.23;;;7.20;99.90;;;;;;5069584;28;20040;-64
2023/04/08 02:52:07;;;;;;;21.10;9.85;;;7.10;99.90;;;;;;5056417;28;20073;-63
2023/04/08 02:54:33;;;;;;;18.17;9.18;;;7.10;99.90;;;;;;5048134;28;20029;-63
2023/04/08 02:56:58;;;;;;;19.60;9.98;;;7.10;99.90;;;;;;5053514;28;20742;-64
2023/04/08 02:59:24;;;;;;;22.02;10.48;;;7.10;99.90;;;;;;5069041;28;20380;-67
2023/04/08 03:01:50;;;;;;;21.17;10.27;;;7.10;99.90;;;;;;5061377;28;20033;-65
2023/04/08 03:04:15;;;;;;;21.40;10.45;;;7.10;99.90;;;;;;5053148;28;20028;-63
2023/04/08 03:06:41;;;;;;;21.52;10.40;;;7.10;99.90;;;;;;5056769;28;20025;-63
2023/04/08 03:09:06;;;;;;;29.67;12.63;;;7.20;99.90;;;;;;5047960;28;20040;-62
2023/04/08 03:11:32;;;;;;;27.63;12.45;;;7.20;99.90;;;;;;5057369;28;20048;-65
2023/04/08 03:13:58;;;;;;;25.17;12.40;;;7.20;99.90;;;;;;5052400;28;20465;-63
2023/04/08 03:16:23;;;;;;;31.50;13.35;;;7.20;99.90;;;;;;5037807;28;20057;-65
2023/04/08 03:18:52;;;;;;;30.65;13.82;;;7.20;99.90;;;;;;5057483;28;20037;-66
2023/04/08 03:21:18;;;;;;;30.73;13.35;;;7.20;99.90;;;;;;5063565;28;20377;-63
2023/04/08 03:23:44;;;;;;;30.02;13.23;;;7.20;99.90;;;;;;5064500;28;20036;-66
2023/04/08 03:26:10;;;;;;;28.30;13.20;;;7.20;99.90;;;;;;5055251;28;20035;-64
2023/04/08 03:28:36;;;;;;;32.92;13.48;;;7.20;99.90;;;;;;5060788;28;20025;-62
2023/04/08 03:31:04;;;;;;;33.05;13.30;;;7.30;99.90;;;;;;5067097;28;20036;-64
2023/04/08 03:33:30;;;;;;;30.23;13.77;;;7.30;99.90;;;;;;5066575;28;20051;-65
2023/04/08 03:35:56;;;;;;;32.20;14.45;;;7.30;99.90;;;;;;5051583;28;20033;-63
2023/04/08 03:38:22;;;;;;;31.58;14.32;;;7.30;99.90;;;;;;5064065;28;20072;-66
2023/04/08 03:40:47;;;;;;;31.70;13.85;;;7.30;99.90;;;;;;5068047;28;20388;-69
2023/04/08 03:43:13;;;;;;;36.50;14.27;;;7.30;99.90;;;;;;5047870;28;20037;-65
2023/04/08 03:45:39;;;;;;;31.77;14.07;;;7.30;99.90;;;;;;5038280;28;20029;-66
2023/04/08 03:48:05;;;;;;;32.55;14.10;;;7.30;99.90;;;;;;5047750;28;20044;-63
2023/04/08 03:50:31;;;;;;;30.35;13.95;;;7.40;99.90;;;;;;5059965;28;20053;-65
2023/04/08 03:52:57;;;;;;;30.08;14.40;;;7.40;99.90;;;;;;5061694;28;20028;-63
2023/04/08 03:55:22;;;;;;;32.03;14.27;;;7.40;99.90;;;;;;5047929;28;20512;-63
2023/04/08 03:57:48;;;;;;;30.52;14.20;;;7.40;99.90;;;;;;5058573;28;20568;-69
2023/04/08 04:00:14;;;;;;;36.88;15.48;;;7.40;99.90;;;;;;5050349;28;20108;-66
2023/04/08 04:02:40;;;;;;;38.25;15.65;;;7.40;99.90;;;;;;5046332;28;20063;-65
2023/04/08 04:05:06;;;;;;;32.15;15.10;;;7.50;99.90;;;;;;5046716;28;20056;-64
2023/04/08 04:07:31;;;;;;;32.95;15.00;;;7.50;99.90;;;;;;5047701;28;20032;-63
2023/04/08 04:09:57;;;;;;;37.67;16.50;;;7.50;99.90;;;;;;5055180;28;20449;-63
2023/04/08 04:12:23;;;;;;;33.88;15.27;;;7.50;99.90;;;;;;5061763;28;20041;-62
2023/04/08 04:14:48;;;;;;;35.80;15.48;;;7.50;99.90;;;;;;5038196;28;20066;-69
2023/04/08 04:17:14;;;;;;;40.10;16.58;;;7.50;99.90;;;;;;5058695;28;20033;-65
2023/04/08 04:19:40;;;;;;;35.67;16.05;;;7.50;99.90;;;;;;5048160;28;20033;-64
2023/04/08 04:22:05;;;;;;;33.30;15.32;;;7.50;99.90;;;;;;5046153;28;20488;-63
2023/04/08 04:24:31;;;;;;;36.50;15.45;;;7.50;99.90;;;;;;5059629;28;20540;-65
2023/04/08 04:26:57;;;;;;;32.03;15.00;;;7.40;99.90;;;;;;5066981;28;20094;-64
2023/04/08 04:29:22;;;;;;;35.75;15.93;;;7.50;99.90;;;;;;5067373;28;20052;-64
2023/04/08 04:31:48;;;;;;;34.33;15.27;;;7.50;99.90;;;;;;5066440;28;20125;-68
2023/04/08 04:34:14;;;;;;;32.28;15.10;;;7.40;99.90;;;;;;5045304;28;20033;-65
2023/04/08 04:36:39;;;;;;;34.38;16.73;;;7.40;99.90;;;;;;5065368;28;20078;-64
2023/04/08 04:39:05;;;;;;;36.38;16.08;;;7.40;99.90;;;;;;5070963;28;20082;-63
2023/04/08 04:41:31;;;;;;;32.47;15.63;;;7.40;99.90;;;;;;5070347;28;20500;-64
2023/04/08 04:43:56;;;;;;;35.08;15.15;;;7.50;99.90;;;;;;5044779;28;20029;-63
2023/04/08 04:46:22;;;;;;;34.67;16.20;;;7.50;99.90;;;;;;5063045;28;20036;-63
2023/04/08 04:48:47;;;;;;;31.50;15.45;;;7.40;99.90;;;;;;5064198;28;20068;-63
2023/04/08 04:51:13;;;;;;;34.70;15.68;;;7.40;99.90;;;;;;5051917;28;20176;-63
2023/04/08 04:53:39;;;;;;;33.70;15.90;;;7.40;99.90;;;;;;5060602;28;20029;-64
2023/04/08 04:56:05;;;;;;;33.25;16.10;;;7.40;99.90;;;;;;5050565;28;20029;-63
2023/04/08 04:58:31;;;;;;;32.50;15.48;;;7.30;99.90;;;;;;5067401;28;20032;-63
2023/04/08 05:00:57;;;;;;;31.10;15.07;;;7.30;99.90;;;;;;5057813;28;20116;-64
2023/04/08 05:03:22;;;;;;;31.90;15.02;;;7.30;99.90;;;;;;5045748;28;20071;-65
2023/04/08 05:05:52;;;;;;;31.70;14.70;;;7.20;99.90;;;;;;5047031;28;20097;-65
2023/04/08 05:08:18;;;;;;;32.05;14.95;;;7.30;99.90;;;;;;5050229;28;20365;-64
2023/04/08 05:10:44;;;;;;;29.60;13.57;;;7.30;99.90;;;;;;5050099;28;20044;-67
2023/04/08 05:13:09;;;;;;;31.63;14.07;;;7.20;99.90;;;;;;5045747;28;20043;-65
2023/04/08 05:15:35;;;;;;;33.70;15.20;;;7.30;99.90;;;;;;5049372;28;20026;-65
2023/04/08 05:18:01;;;;;;;31.13;15.25;;;7.30;99.90;;;;;;5050451;28;20445;-64
2023/04/08 05:20:27;;;;;;;30.73;13.95;;;7.30;99.90;;;;;;5049558;28;20386;-64
2023/04/08 05:22:52;;;;;;;29.90;13.82;;;7.30;99.90;;;;;;5046577;28;20021;-70
2023/04/08 05:25:18;;;;;;;28.50;13.15;;;7.40;99.90;;;;;;5048180;28;20071;-64
2023/04/08 05:27:44;;;;;;;32.05;14.25;;;7.30;99.90;;;;;;5051032;28;20037;-67
2023/04/08 05:30:10;;;;;;;32.95;14.15;;;7.40;99.90;;;;;;5049912;28;20033;-65
2023/04/08 05:32:36;;;;;;;33.75;15.30;;;7.40;99.90;;;;;;5048018;28;20055;-64
2023/04/08 05:35:02;;;;;;;31.67;14.93;;;7.40;99.90;;;;;;5049863;28;20036;-65
2023/04/08 05:37:28;;;;;;;32.78;14.95;;;7.40;99.90;;;;;;5050867;28;20025;-66
2023/04/08 05:39:53;;;;;;;33.58;16.08;;;7.40;99.90;;;;;;5050217;28;20136;-70
2023/04/08 05:42:19;;;;;;;31.75;15.93;;;7.40;99.90;;;;;;5049173;28;20051;-70
2023/04/08 05:44:45;;;;;;;35.45;16.83;;;7.40;99.90;;;;;;5048993;28;20024;-65
2023/04/08 05:47:10;;;;;;;33.75;15.50;;;7.40;99.90;;;;;;5048850;28;20032;-64
2023/04/08 05:49:36;;;;;;;35.28;15.85;;;7.30;99.90;;;;;;5049649;28;20025;-64
2023/04/08 05:52:02;;;;;;;34.63;15.57;;;7.30;99.90;;;;;;5048989;28;20094;-68
2023/04/08 05:54:28;;;;;;;34.10;16.33;;;7.20;99.90;;;;;;5049361;28;20053;-64
2023/04/08 05:56:54;;;;;;;36.00;16.88;;;7.30;99.90;;;;;;5040409;28;20057;-70
2023/04/08 05:59:19;;;;;;;36.60;16.77;;;7.30;99.90;;;;;;5052105;28;20060;-65
2023/04/08 06:01:45;;;;;;;35.72;16.40;;;7.30;99.90;;;;;;5062355;28;20040;-64
2023/04/08 06:04:11;;;;;;;37.38;16.25;;;7.30;99.90;;;;;;5040915;28;20033;-65
2023/04/08 06:06:38;;;;;;;35.05;16.63;;;7.30;99.90;;;;;;5039563;28;20378;-64
2023/04/08 06:09:04;;;;;;;37.70;16.38;;;7.40;99.90;;;;;;5056041;28;20156;-67
2023/04/08 06:11:30;;;;;;;36.58;16.83;;;7.40;99.90;;;;;;5062137;28;20533;-65
2023/04/08 06:13:55;;;;;;;36.17;16.48;;;7.40;99.90;;;;;;5053055;28;20373;-69
2023/04/08 06:16:21;;;;;;;32.75;15.35;;;7.30;99.90;;;;;;5048779;28;20377;-64
2023/04/08 06:18:47;;;;;;;35.63;16.15;;;7.30;99.90;;;;;;5041399;28;20055;-64
2023/04/08 06:21:12;;;;;;;37.13;16.42;;;7.30;99.90;;;;;;5050612;28;20550;-65
2023/04/08 06:23:38;;;;;;;37.78;16.38;;;7.40;99.90;;;;;;5050394;28;20073;-64
2023/04/08 06:26:04;;;;;;;33.58;15.65;;;7.40;99.90;;;;;;5068352;28;20038;-67
2023/04/08 06:28:30;;;;;;;32.80;15.75;;;7.50;99.90;;;;;;5066204;28;20361;-65
2023/04/08 06:30:56;;;;;;;33.17;15.07;;;7.60;99.90;;;;;;5062041;28;20516;-68
2023/04/08 06:33:22;;;;;;;35.97;16.23;;;7.60;99.90;;;;;;5067419;28;20512;-67
2023/04/08 06:35:47;;;;;;;36.00;16.30;;;7.60;99.90;;;;;;5067287;28;20032;-64
2023/04/08 06:38:13;;;;;;;34.85;15.75;;;7.60;99.90;;;;;;5055007;28;20027;-64
2023/04/08 06:40:39;;;;;;;33.55;15.38;;;7.60;99.90;;;;;;5049172;28;20609;-66
2023/04/08 06:43:06;;;;;;;31.60;15.43;;;7.60;99.90;;;;;;5044376;28;20021;-68
2023/04/08 06:45:32;;;;;;;33.80;16.17;;;7.70;99.90;;;;;;5038859;28;20033;-66
2023/04/08 06:47:58;;;;;;;35.75;15.68;;;7.80;99.90;;;;;;5048916;28;20393;-70
2023/04/08 06:50:24;;;;;;;34.78;15.85;;;7.80;99.90;;;;;;5047325;28;20053;-67
2023/04/08 06:52:50;;;;;;;36.20;16.00;;;7.90;99.90;;;;;;5048662;28;20043;-65
2023/04/08 06:55:15;;;;;;;35.70;16.55;;;7.90;99.90;;;;;;5036364;28;20456;-65
2023/04/08 06:57:41;;;;;;;41.90;16.80;;;7.90;99.90;;;;;;5035610;28;20469;-64
2023/04/08 07:00:07;;;;;;;33.63;15.52;;;7.90;99.90;;;;;;5035070;28;20052;-64
2023/04/08 07:02:33;;;;;;;31.58;15.73;;;7.70;99.90;;;;;;5029117;28;20040;-64
2023/04/08 07:04:59;;;;;;;35.85;16.38;;;7.80;99.90;;;;;;5039118;28;20024;-70
2023/04/08 07:07:25;;;;;;;33.92;16.25;;;7.70;99.90;;;;;;5028879;28;20359;-64
2023/04/08 07:09:50;;;;;;;33.38;15.90;;;7.70;99.90;;;;;;5029835;28;20028;-65
2023/04/08 07:12:16;;;;;;;39.13;17.50;;;7.80;99.90;;;;;;5050156;28;20028;-63
2023/04/08 07:14:42;;;;;;;37.20;17.02;;;7.90;99.90;;;;;;5043010;28;20041;-63
2023/04/08 07:17:07;;;;;;;35.60;17.25;;;7.90;99.90;;;;;;5047218;28;20059;-63
2023/04/08 07:19:33;;;;;;;37.10;17.00;;;8.00;99.90;;;;;;5044170;28;20029;-65
2023/04/08 07:21:59;;;;;;;34.10;17.40;;;8.10;99.90;;;;;;5039463;28;20033;-70
2023/04/08 07:24:25;;;;;;;35.42;16.58;;;8.30;99.90;;;;;;5054298;28;20477;-64
2023/04/08 07:26:51;;;;;;;38.65;18.27;;;8.40;99.90;;;;;;5057123;28;20042;-65
2023/04/08 07:29:17;;;;;;;34.72;17.30;;;8.40;99.90;;;;;;5044905;28;20368;-64
2023/04/08 07:31:43;;;;;;;31.58;16.05;;;8.40;99.90;;;;;;5048285;28;20079;-65
2023/04/08 07:34:09;;;;;;;32.92;16.45;;;8.50;99.90;;;;;;5040712;28;20539;-66
2023/04/08 07:36:35;;;;;;;30.98;16.58;;;8.50;99.90;;;;;;5048120;28;20033;-65
2023/04/08 07:39:00;;;;;;;30.33;16.27;;;8.50;99.90;;;;;;5048249;28;20036;-70
2023/04/08 07:41:26;;;;;;;31.25;16.33;;;8.40;99.90;;;;;;5047921;28;20036;-64
2023/04/08 07:43:52;;;;;;;27.80;15.48;;;8.50;99.90;;;;;;5048477;28;20403;-67
2023/04/08 07:46:18;;;;;;;31.40;16.40;;;8.50;99.90;;;;;;5047616;28;20029;-64
2023/04/08 07:48:44;;;;;;;32.67;16.15;;;8.40;99.90;;;;;;5047331;28;20021;-67
2023/04/08 07:51:10;;;;;;;33.25;16.20;;;8.50;99.90;;;;;;5047489;28;20088;-64
2023/04/08 07:53:36;;;;;;;35.28;17.73;;;8.50;99.90;;;;;;5048382;28;20083;-66
2023/04/08 07:56:04;;;;;;;32.70;16.92;;;8.60;99.90;;;;;;5048072;28;20035;-70
2023/04/08 07:58:31;;;;;;;34.20;16.30;;;8.70;99.90;;;;;;5048439;28;20025;-66
2023/04/08 08:00:57;;;;;;;33.05;16.92;;;8.60;99.90;;;;;;5048427;28;20028;-65
2023/04/08 08:03:23;;;;;;;30.00;15.95;;;8.60;99.90;;;;;;5046339;28;20021;-65
2023/04/08 08:05:48;;;;;;;32.88;15.88;;;8.60;99.90;;;;;;5048301;28;20067;-64
2023/04/08 08:08:14;;;;;;;33.22;16.83;;;8.70;99.90;;;;;;5050431;28;20033;-66
2023/04/08 08:10:40;;;;;;;29.70;14.35;;;8.60;99.90;;;;;;5052310;28;20469;-65
2023/04/08 08:13:07;;;;;;;34.53;16.60;;;8.70;99.90;;;;;;5051674;28;20047;-71
2023/04/08 08:15:32;;;;;;;34.78;17.02;;;8.70;99.90;;;;;;5052353;28;20040;-65
2023/04/08 08:17:58;;;;;;;34.97;16.83;;;8.60;99.90;;;;;;5050427;28;20033;-65
2023/04/08 08:20:24;;;;;;;32.20;15.70;;;8.60;99.90;;;;;;5050097;28;20171;-66
2023/04/08 08:22:50;;;;;;;33.58;15.82;;;8.70;99.90;;;;;;5052208;28;20033;-65
2023/04/08 08:25:16;;;;;;;33.47;15.63;;;8.80;99.90;;;;;;5051104;28;20037;-67
2023/04/08 08:27:42;;;;;;;32.00;16.50;;;8.80;99.90;;;;;;5052133;28;20032;-66
2023/04/08 08:30:08;;;;;;;30.92;16.33;;;9.00;99.90;;;;;;5051101;28;20021;-66
2023/04/08 08:32:34;;;;;;;29.52;15.63;;;9.10;99.90;;;;;;5051932;28;20071;-67
2023/04/08 08:35:00;;;;;;;34.45;16.40;;;9.20;99.90;;;;;;5051680;28;20120;-65
2023/04/08 08:37:26;;;;;;;30.80;16.15;;;9.40;99.90;;;;;;5049767;28;20080;-65
2023/04/08 08:39:52;;;;;;;29.58;15.32;;;9.50;99.90;;;;;;5051568;28;20504;-68
2023/04/08 08:42:22;;;;;;;31.98;16.00;;;9.70;99.90;;;;;;5050783;28;20047;-64
2023/04/08 08:44:48;;;;;;;33.63;15.75;;;9.90;99.90;;;;;;5051739;28;20021;-65
2023/04/08 08:47:14;;;;;;;31.15;15.02;;;9.90;99.90;;;;;;5050951;28;20048;-67
2023/04/08 08:49:40;;;;;;;26.50;14.00;;;10.00;99.90;;;;;;5051584;28;20039;-65
2023/04/08 08:52:06;;;;;;;31.15;15.85;;;10.10;99.90;;;;;;5049886;28;20079;-71
2023/04/08 08:54:32;;;;;;;29.48;15.40;;;10.30;99.90;;;;;;5051381;28;20122;-68
2023/04/08 08:56:58;;;;;;;28.55;14.82;;;10.40;99.90;;;;;;5051407;28;20032;-66
2023/04/08 08:59:23;;;;;;;27.42;14.50;;;10.60;99.90;;;;;;5049010;28;20025;-66
2023/04/08 09:01:49;;;;;;;27.40;14.93;;;10.60;99.90;;;;;;5051260;28;20037;-68
2023/04/08 09:04:18;;;;;;;29.38;15.32;;;10.70;99.90;;;;;;5050283;28;20091;-66
2023/04/08 09:07:08;;;;;;;26.75;14.23;;;10.60;99.90;;;;;;5049165;28;20036;-67
2023/04/08 09:09:50;;;;;;;27.83;14.43;;;10.50;99.90;;;;;;5051425;28;20094;-69
2023/04/08 09:12:16;;;;;;;26.08;13.60;;;10.50;99.90;;;;;;5050292;28;20051;-65
2023/04/08 09:14:42;;;;;;;26.25;13.52;;;10.30;99.90;;;;;;5050961;28;20021;-65
2023/04/08 09:17:07;;;;;;;26.13;14.07;;;10.30;99.90;;;;;;5050762;28;20025;-71
2023/04/08 09:19:33;;;;;;;25.30;13.75;;;10.20;99.90;;;;;;5048869;28;20164;-67
2023/04/08 09:22:06;;;;;;;28.67;13.65;;;10.00;99.90;;;;;;5048612;28;20115;-66
2023/04/08 09:24:32;;;;;;;28.23;13.93;;;9.80;99.90;;;;;;5049056;28;20167;-69
2023/04/08 09:26:58;;;;;;;24.70;13.15;;;9.60;99.90;;;;;;5051031;28;20517;-65
2023/04/08 09:29:27;;;;;;;25.05;13.00;;;9.60;99.90;;;;;;5050266;28;20031;-67
2023/04/08 09:31:55;;;;;;;28.98;13.38;;;9.40;99.90;;;;;;5049268;28;20408;-66
2023/04/08 09:34:22;;;;;;;26.67;13.98;;;9.30;99.90;;;;;;5050002;28;20388;-65
2023/04/08 09:36:48;;;;;;;24.63;13.48;;;9.30;99.90;;;;;;5050864;28;20021;-65
2023/04/08 09:39:14;;;;;;;25.35;14.10;;;9.10;99.90;;;;;;5050004;28;20032;-67
2023/04/08 09:41:41;;;;;;;27.30;14.55;;;9.00;99.90;;;;;;5050799;28;20036;-66
2023/04/08 09:44:09;;;;;;;29.63;15.05;;;9.10;99.90;;;;;;5050723;28;20104;-64
2023/04/08 09:46:50;;;;;;;26.40;13.43;;;9.20;99.90;;;;;;5048826;28;20033;-66
2023/04/08 09:49:28;;;;;;;24.98;13.35;;;9.20;99.90;;;;;;5049678;28;20040;-67
2023/04/08 09:52:06;;;;;;;26.02;13.43;;;9.20;99.90;;;;;;5050115;28;20045;-67
2023/04/08 09:55:02;;;;;;;30.23;14.45;;;9.20;99.90;;;;;;5049756;28;20056;-65
2023/04/08 09:57:48;;;;;;;26.95;13.73;;;9.30;99.90;;;;;;5044852;28;20128;-65
2023/04/08 10:00:15;;;;;;;28.67;13.95;;;9.30;99.90;;;;;;5046885;28;20041;-67
2023/04/08 10:03:09;;;;;;;26.73;13.98;;;9.30;99.90;;;;;;5049074;28;20374;-65
2023/04/08 10:05:38;;;;;;;28.70;14.18;;;9.20;99.90;;;;;;5048507;28;20056;-65
2023/04/08 10:08:05;;;;;;;28.10;13.23;;;9.20;99.90;;;;;;5050020;28;20033;-67
2023/04/08 10:10:32;;;;;;;31.20;14.45;;;9.20;99.90;;;;;;5049292;28;20611;-65
2023/04/08 10:12:58;;;;;;;38.15;17.60;;;9.20;99.90;;;;;;5050128;28;20052;-65
2023/04/08 10:15:28;;;;;;;30.08;14.98;;;9.20;99.90;;;;;;5048992;28;20099;-67
2023/04/08 10:18:19;;;;;;;33.17;14.82;;;9.10;99.90;;;;;;5047850;28;20040;-68
2023/04/08 10:20:46;;;;;;;28.42;13.73;;;9.20;99.90;;;;;;5037728;28;20072;-66
2023/04/08 10:23:14;;;;;;;27.40;13.75;;;9.20;99.90;;;;;;5049836;28;20039;-70
2023/04/08 10:25:44;;;;;;;25.92;13.75;;;9.10;99.90;;;;;;5049849;28;20039;-67
2023/04/08 10:28:10;;;;;;;;;;;9.20;99.90;;;;;;5050212;28;20029;-71
2023/04/08 10:30:39;;;;;;;24.50;12.45;;;9.20;99.90;;;;;;5048182;28;20331;-65
2023/04/08 10:33:12;;;;;;;25.77;12.68;;;9.20;99.90;;;;;;5048083;28;20059;-65
2023/04/08 10:36:01;;;;;;;24.25;12.65;;;9.20;99.90;;;;;;5048104;28;20044;-64
2023/04/08 10:38:27;;;;;;;27.45;12.50;;;9.20;99.90;;;;;;5034688;28;20040;-65
2023/04/08 10:40:53;;;;;;;24.98;12.52;;;9.30;99.90;;;;;;5049599;28;20068;-65
2023/04/08 10:43:19;;;;;;;22.90;12.38;;;9.30;99.90;;;;;;5048564;28;20845;-67
2023/04/08 10:45:45;;;;;;;27.13;13.38;;;9.30;99.90;;;;;;5049524;28;20457;-65
2023/04/08 10:48:24;;;;;;;35.75;18.08;;;9.20;99.90;;;;;;5047993;28;20036;-69
2023/04/08 10:50:54;;;;;;;28.40;13.45;;;9.20;99.90;;;;;;5048861;28;20116;-67
2023/04/08 10:53:32;;;;;;;24.42;11.95;;;9.20;99.90;;;;;;5047152;28;20482;-66
2023/04/08 10:56:24;;;;;;;39.67;15.90;;;9.20;99.90;;;;;;5029499;28;20425;-68
2023/04/08 10:58:57;;;;;;;25.15;11.95;;;9.20;99.90;;;;;;5026372;28;20042;-66
2023/04/08 11:01:23;;;;;;;27.65;12.98;;;9.10;99.90;;;;;;5033422;28;20564;-65
2023/04/08 11:03:49;;;;;;;24.15;11.98;;;8.90;99.90;;;;;;5049205;28;20140;-67
2023/04/08 11:06:16;;;;;;;38.28;16.27;;;9.00;99.90;;;;;;5047258;28;20025;-70
2023/04/08 11:08:43;;;;;;;27.13;13.43;;;9.10;99.90;;;;;;5049002;28;20472;-67
2023/04/08 11:11:10;;;;;;;31.20;14.85;;;9.10;99.90;;;;;;5049008;28;20094;-68
2023/04/08 11:13:44;;;;;;;35.28;16.05;;;9.00;99.90;;;;;;5048154;28;20029;-65
2023/04/08 11:16:10;;;;;;;22.17;12.00;;;8.90;99.90;;;;;;5047640;28;20036;-65
2023/04/08 11:18:40;;;;;;;22.45;11.80;;;8.90;99.90;;;;;;5048095;28;20068;-66
2023/04/08 11:21:09;;;;;;;25.92;12.70;;;9.00;99.90;;;;;;5048911;28;20045;-66
2023/04/08 11:23:36;;;;;;;25.77;12.10;;;9.00;99.90;;;;;;5048049;28;20043;-66
2023/04/08 11:26:02;;;;;;;23.00;11.90;;;9.10;99.90;;;;;;5048401;28;20025;-66
2023/04/08 11:28:28;;;;;;;22.30;12.65;;;9.10;99.90;;;;;;5048054;28;20076;-66
2023/04/08 11:30:54;;;;;;;22.42;10.77;;;9.10;99.90;;;;;;5046625;28;20037;-68
2023/04/08 11:33:20;;;;;;;23.10;11.70;;;9.20;99.90;;;;;;5048188;28;20377;-67
2023/04/08 11:35:50;;;;;;;23.20;12.32;;;9.30;99.90;;;;;;5048540;28;20389;-66
2023/04/08 11:38:20;;;;;;;23.10;11.10;;;9.50;99.90;;;;;;5048256;28;20098;-72
2023/04/08 11:40:53;;;;;;;20.23;10.48;;;9.50;99.90;;;;;;5048512;28;20046;-66
2023/04/08 11:43:19;;;;;;;24.65;11.30;;;9.40;99.90;;;;;;5047521;28;20044;-71
2023/04/08 11:45:44;;;;;;;25.98;11.30;;;9.50;99.90;;;;;;5046671;28;20103;-69
2023/04/08 11:48:12;;;;;;;18.38;10.98;;;9.40;99.90;;;;;;5046994;28;20025;-67
2023/04/08 11:50:38;;;;;;;19.65;10.35;;;9.20;99.90;;;;;;5044989;28;20331;-66
2023/04/08 11:53:21;;;;;;;18.90;10.13;;;9.10;99.90;;;;;;5047223;28;20053;-67
2023/04/08 11:55:47;;;;;;;18.95;10.15;;;8.90;99.90;;;;;;5047868;28;20381;-65
2023/04/08 11:58:13;;;;;;;21.02;9.77;;;9.00;99.90;;;;;;5048473;28;20036;-65
2023/04/08 12:00:40;;;;;;;21.15;10.13;;;8.90;99.90;;;;;;5046377;28;20025;-67
2023/04/08 12:03:06;;;;;;;17.80;9.50;;;8.90;99.90;;;;;;5048331;28;20526;-65
2023/04/08 12:05:32;;;;;;;18.45;9.30;;;8.70;99.90;;;;;;5046318;28;20052;-64
2023/04/08 12:07:58;;;;;;;19.75;10.30;;;8.60;99.90;;;;;;5048702;28;20025;-66
2023/04/08 12:10:26;;;;;;;19.48;10.00;;;8.70;99.90;;;;;;5047541;28;20190;-69
2023/04/08 12:12:52;;;;;;;16.33;9.38;;;8.90;99.90;;;;;;5048383;28;20079;-67
2023/04/08 12:15:18;;;;;;;17.38;9.38;;;8.90;99.90;;;;;;5047691;28;20025;-72
2023/04/08 12:17:44;;;;;;;20.05;9.63;;;8.80;99.90;;;;;;5046602;28;20063;-69
2023/04/08 12:20:11;;;;;;;16.52;8.98;;;8.90;99.90;;;;;;5047270;28;20061;-67
2023/04/08 12:22:37;;;;;;;19.50;9.48;;;8.90;99.90;;;;;;5047469;28;20044;-65
2023/04/08 12:25:03;;;;;;;17.17;9.27;;;9.00;99.90;;;;;;5048157;28;20021;-66
2023/04/08 12:27:32;;;;;;;17.98;9.50;;;9.00;99.90;;;;;;5047398;28;20036;-67
2023/04/08 12:29:58;;;;;;;20.08;9.43;;;9.00;99.90;;;;;;5048104;28;20539;-65
2023/04/08 12:32:24;;;;;;;19.10;8.93;;;8.90;99.90;;;;;;5046126;28;20552;-66
2023/04/08 12:34:50;;;;;;;19.17;9.80;;;9.00;99.90;;;;;;5046274;28;20045;-67
2023/04/08 12:37:16;;;;;;;18.27;9.65;;;9.00;99.90;;;;;;5045718;28;20432;-65
2023/04/08 12:39:41;;;;;;;16.92;9.82;;;9.10;99.90;;;;;;5044997;28;20059;-69
2023/04/08 12:42:07;;;;;;;19.65;9.98;;;9.20;99.90;;;;;;5046095;28;20128;-65